Time;durP1;ratioP1;P1;durP2;ratioP2;P2;SDS_P1;SDS_P2;PMS_P1;PMS_P2;Temp;Humidity;BMP_temperature;BMP_pressure;BME280_temperature;BME280_humidity;BME280_pressure;Samples;Min_cycle;Max_cycle;Signal;HPM_P1;HPM_P2
2022/01/27 00:00:35;;;;;;;26.17;9.37;;;-0.90;99.90;;;;;;5092025;28;20194;-65
2022/01/27 00:05:03;;;;;;;22.60;9.73;;;-0.90;99.90;;;;;;5092344;28;20581;-65
2022/01/27 00:07:30;;;;;;;25.07;9.70;;;-0.90;99.90;;;;;;5091582;28;20212;-65
2022/01/27 00:10:46;;;;;;;27.77;10.93;;;-1.00;99.90;;;;;;5091991;28;20203;-65
2022/01/27 00:12:47;;;;;;;25.27;10.57;;;-1.00;99.90;;;;;;5088111;28;20219;-65
2022/01/27 00:15:16;;;;;;;28.17;10.27;;;-0.90;99.90;;;;;;5091730;28;20643;-65
2022/01/27 00:17:48;;;;;;;23.13;9.23;;;-1.00;99.90;;;;;;5091788;28;20211;-65
2022/01/27 00:20:15;;;;;;;25.83;10.47;;;-1.00;99.90;;;;;;5090675;28;20271;-65
2022/01/27 00:22:42;;;;;;;23.73;9.37;;;-1.00;99.90;;;;;;5091698;28;20566;-65
2022/01/27 00:25:09;;;;;;;32.17;10.77;;;-1.00;99.90;;;;;;5091710;28;20180;-65
2022/01/27 00:27:34;;;;;;;27.23;10.07;;;-1.00;99.90;;;;;;5091669;28;20279;-65
2022/01/27 00:30:03;;;;;;;34.90;12.13;;;-1.00;99.90;;;;;;5091670;28;20275;-65
2022/01/27 00:32:30;;;;;;;33.30;12.50;;;-1.00;99.90;;;;;;5091506;28;20196;-65
2022/01/27 00:34:56;;;;;;;29.67;11.70;;;-1.00;99.90;;;;;;5091928;28;20280;-65
2022/01/27 00:37:21;;;;;;;30.67;11.17;;;-1.00;99.90;;;;;;5091473;28;20278;-65
2022/01/27 00:39:47;;;;;;;29.40;9.83;;;-1.00;99.90;;;;;;5090639;28;20563;-65
2022/01/27 00:42:12;;;;;;;29.77;11.13;;;-1.00;99.90;;;;;;5090225;28;20585;-65
2022/01/27 00:44:38;;;;;;;27.07;11.63;;;-1.00;99.90;;;;;;5092883;28;20712;-65
2022/01/27 00:47:04;;;;;;;32.70;10.73;;;-1.00;99.90;;;;;;5095327;28;20662;-65
2022/01/27 00:49:30;;;;;;;31.00;10.17;;;-0.90;99.90;;;;;;5095825;28;20188;-65
2022/01/27 00:51:56;;;;;;;35.10;11.30;;;-0.90;99.90;;;;;;5094162;28;20554;-65
2022/01/27 00:54:26;;;;;;;33.97;10.87;;;-0.90;99.90;;;;;;5095265;28;20245;-65
2022/01/27 00:57:08;;;;;;;30.13;9.97;;;-0.90;99.90;;;;;;5095107;28;20271;-65
2022/01/27 00:59:51;;;;;;;24.80;9.73;;;-0.90;99.90;;;;;;5084010;28;20187;-64
2022/01/27 01:04:56;;;;;;;31.10;10.37;;;-0.90;99.90;;;;;;5095636;28;20603;-66
2022/01/27 01:07:22;;;;;;;30.40;10.60;;;-0.90;99.90;;;;;;5094812;28;20227;-65
2022/01/27 01:15:17;;;;;;;31.73;10.53;;;-0.90;99.90;;;;;;5094992;28;20188;-65
2022/01/27 01:33:43;;;;;;;32.90;11.37;;;-0.90;99.90;;;;;;5084871;28;20706;-65
2022/01/27 01:36:26;;;;;;;35.60;11.17;;;-1.00;99.90;;;;;;5094742;28;20257;-65
2022/01/27 01:38:52;;;;;;;36.43;12.50;;;-1.00;99.90;;;;;;5074661;28;20188;-65
2022/01/27 01:41:17;;;;;;;30.67;11.17;;;-1.00;99.90;;;;;;5086694;28;20180;-64
2022/01/27 01:43:43;;;;;;;37.03;12.57;;;-0.90;99.90;;;;;;5093230;28;20279;-65
2022/01/27 01:46:08;;;;;;;36.50;12.37;;;-1.00;99.90;;;;;;5094548;28;20224;-64
2022/01/27 01:48:34;;;;;;;30.43;11.23;;;-1.00;99.90;;;;;;5094341;28;20177;-64
2022/01/27 01:51:02;;;;;;;35.73;11.93;;;-1.00;99.90;;;;;;5092921;28;20227;-64
2022/01/27 01:53:29;;;;;;;34.23;12.30;;;-1.00;99.90;;;;;;5094386;28;20635;-64
2022/01/27 01:55:54;;;;;;;35.50;12.03;;;-1.00;99.90;;;;;;5093761;28;20177;-64
2022/01/27 01:58:20;;;;;;;42.10;12.17;;;-1.00;99.90;;;;;;5093989;28;20199;-64
2022/01/27 02:00:45;;;;;;;38.83;12.53;;;-1.10;99.90;;;;;;5094495;28;20541;-64
2022/01/27 02:03:11;;;;;;;36.43;13.13;;;-1.10;99.90;;;;;;5094173;28;20191;-64
2022/01/27 02:05:43;;;;;;;39.67;13.03;;;-1.10;99.90;;;;;;5094152;28;20265;-64
2022/01/27 02:19:12;;;;;;;38.17;12.13;;;-1.10;99.90;;;;;;5094012;28;20395;-64
2022/01/27 02:21:53;;;;;;;39.63;12.17;;;-1.10;99.90;;;;;;5093217;28;20190;-65
2022/01/27 02:24:20;;;;;;;35.43;11.63;;;-1.10;99.90;;;;;;5093729;28;20180;-64
2022/01/27 02:26:49;;;;;;;42.37;12.83;;;-1.00;99.90;;;;;;5085118;28;20218;-64
2022/01/27 02:29:15;;;;;;;35.13;11.50;;;-1.00;99.90;;;;;;5093013;28;20185;-64
2022/01/27 02:31:41;;;;;;;46.60;12.93;;;-1.00;99.90;;;;;;5093169;28;20192;-64
2022/01/27 02:34:07;;;;;;;33.47;12.33;;;-1.00;99.90;;;;;;5091849;28;20186;-65
2022/01/27 02:36:33;;;;;;;36.93;13.13;;;-1.00;99.90;;;;;;5093007;28;20192;-64
2022/01/27 02:38:59;;;;;;;34.50;13.07;;;-0.90;99.90;;;;;;5093384;28;20651;-64
2022/01/27 02:41:27;;;;;;;49.83;14.53;;;-0.90;99.90;;;;;;5091705;28;20184;-64
2022/01/27 02:43:56;;;;;;;40.47;12.80;;;-0.90;99.90;;;;;;5093249;28;20271;-64
2022/01/27 02:46:30;;;;;;;36.50;12.50;;;-0.80;99.90;;;;;;5093447;28;20244;-64
2022/01/27 02:48:56;;;;;;;37.70;13.07;;;-0.70;99.90;;;;;;5093436;28;20516;-64
2022/01/27 02:51:22;;;;;;;43.80;14.60;;;-0.70;99.90;;;;;;5093385;28;20199;-65
2022/01/27 02:53:47;;;;;;;42.70;14.57;;;-0.80;99.90;;;;;;5093284;28;20176;-65
2022/01/27 02:56:13;;;;;;;42.80;14.37;;;-0.80;99.90;;;;;;5092916;28;20188;-64
2022/01/27 02:58:38;;;;;;;42.37;13.13;;;-0.90;99.90;;;;;;5092735;28;20188;-64
2022/01/27 03:01:04;;;;;;;44.30;12.47;;;-0.90;99.90;;;;;;5093489;28;20277;-64
2022/01/27 03:03:30;;;;;;;40.20;13.47;;;-0.90;99.90;;;;;;5092153;28;20181;-64
2022/01/27 03:05:56;;;;;;;35.40;12.93;;;-1.00;99.90;;;;;;5091276;28;20218;-64
2022/01/27 03:08:21;;;;;;;37.17;12.93;;;-1.00;99.90;;;;;;5091744;28;20244;-64
2022/01/27 03:10:58;;;;;;;39.07;13.53;;;-1.00;99.90;;;;;;5091617;28;20176;-64
2022/01/27 03:13:23;;;;;;;41.57;13.40;;;-0.90;99.90;;;;;;5093175;28;20183;-64
2022/01/27 03:15:49;;;;;;;42.30;13.23;;;-1.00;99.90;;;;;;5092952;28;20271;-65
2022/01/27 03:18:14;;;;;;;37.17;14.07;;;-1.00;99.90;;;;;;5093092;28;20241;-65
2022/01/27 03:20:40;;;;;;;39.97;13.17;;;-1.10;99.90;;;;;;5092763;28;20302;-65
2022/01/27 03:23:07;;;;;;;40.80;13.27;;;-1.10;99.90;;;;;;5092852;28;20541;-64
2022/01/27 03:25:32;;;;;;;43.37;14.13;;;-1.10;99.90;;;;;;5092421;28;20562;-64
2022/01/27 03:27:58;;;;;;;39.83;14.10;;;-1.10;99.90;;;;;;5092813;28;20195;-65
2022/01/27 03:30:23;;;;;;;38.43;13.90;;;-1.10;99.90;;;;;;5092867;28;20180;-65
2022/01/27 03:32:49;;;;;;;45.27;13.93;;;-1.10;99.90;;;;;;5092630;28;20183;-65
2022/01/27 03:35:15;;;;;;;45.27;13.60;;;-1.20;99.90;;;;;;5092507;28;20172;-64
2022/01/27 03:37:40;;;;;;;40.53;13.53;;;-1.20;99.90;;;;;;5092891;28;20184;-65
2022/01/27 03:40:07;;;;;;;35.63;13.27;;;-1.20;99.90;;;;;;5092263;28;20464;-65
2022/01/27 03:42:33;;;;;;;36.00;13.23;;;-1.20;99.90;;;;;;5092644;28;20176;-65
2022/01/27 03:44:58;;;;;;;36.60;12.93;;;-1.20;99.90;;;;;;5092501;28;20187;-64
2022/01/27 03:47:24;;;;;;;41.47;13.33;;;-1.20;99.90;;;;;;5092322;28;20615;-65
2022/01/27 03:49:49;;;;;;;40.67;13.90;;;-1.20;99.90;;;;;;5091293;28;20206;-64
2022/01/27 03:52:16;;;;;;;40.83;12.97;;;-1.20;99.90;;;;;;5091046;28;20257;-64
2022/01/27 03:54:41;;;;;;;36.73;11.97;;;-1.20;99.90;;;;;;5092234;28;20180;-65
2022/01/27 03:57:07;;;;;;;37.60;14.30;;;-1.30;99.90;;;;;;5092266;28;20191;-65
2022/01/27 03:59:32;;;;;;;45.67;15.87;;;-1.20;99.90;;;;;;5092077;28;20196;-65
2022/01/27 04:01:58;;;;;;;44.10;14.83;;;-1.20;99.90;;;;;;5091973;28;20176;-65
2022/01/27 04:04:25;;;;;;;36.10;13.77;;;-1.20;99.90;;;;;;5091142;28;20207;-65
2022/01/27 04:06:52;;;;;;;43.60;14.00;;;-1.20;99.90;;;;;;5091771;28;20240;-64
2022/01/27 04:09:18;;;;;;;43.00;12.97;;;-1.20;99.90;;;;;;5092145;28;20219;-64
2022/01/27 04:11:44;;;;;;;54.37;18.63;;;-1.30;99.90;;;;;;5092499;28;20212;-65
2022/01/27 04:14:10;;;;;;;42.70;13.43;;;-1.30;99.90;;;;;;5091060;28;20179;-65
2022/01/27 04:16:36;;;;;;;47.20;14.50;;;-1.30;99.90;;;;;;5092093;28;20192;-65
2022/01/27 04:19:02;;;;;;;39.50;14.83;;;-1.30;99.90;;;;;;5091706;28;20592;-65
2022/01/27 04:21:28;;;;;;;69.77;19.57;;;-1.30;99.90;;;;;;5092009;28;20196;-65
2022/01/27 04:23:54;;;;;;;42.80;13.33;;;-1.30;99.90;;;;;;5091601;28;20714;-64
2022/01/27 04:26:25;;;;;;;49.67;15.80;;;-1.30;99.90;;;;;;5091385;28;20600;-64
2022/01/27 04:28:52;;;;;;;51.83;15.57;;;-1.40;99.90;;;;;;5083109;28;20176;-64
2022/01/27 04:31:18;;;;;;;45.63;13.50;;;-1.40;99.90;;;;;;5091451;28;20212;-64
2022/01/27 04:33:44;;;;;;;43.37;15.87;;;-1.40;99.90;;;;;;5091914;28;20176;-65
2022/01/27 04:36:22;;;;;;;50.60;16.10;;;-1.40;99.90;;;;;;5091636;28;20321;-65
2022/01/27 04:38:59;;;;;;;43.93;15.60;;;-1.30;99.90;;;;;;5090250;28;20267;-65
2022/01/27 04:44:09;;;;;;;59.00;19.37;;;-1.30;99.90;;;;;;5091187;28;20184;-65
2022/01/27 04:46:42;;;;;;;43.23;14.13;;;-1.30;99.90;;;;;;5091681;28;20212;-65
2022/01/27 04:49:10;;;;;;;44.70;14.97;;;-1.30;99.90;;;;;;5091333;28;20207;-65
2022/01/27 04:51:35;;;;;;;47.83;15.30;;;-1.30;99.90;;;;;;5091308;28;20173;-65
2022/01/27 04:54:11;;;;;;;51.57;16.73;;;-1.30;99.90;;;;;;5091179;28;20184;-65
2022/01/27 04:56:39;;;;;;;44.33;13.90;;;-1.30;99.90;;;;;;5091275;28;20191;-66
2022/01/27 04:59:12;;;;;;;46.10;14.67;;;-1.30;99.90;;;;;;5091089;28;20233;-65
2022/01/27 05:01:43;;;;;;;51.13;15.73;;;-1.40;99.90;;;;;;5090623;28;20749;-65
2022/01/27 05:04:13;;;;;;;42.00;15.50;;;-1.40;99.90;;;;;;5090079;28;20183;-64
2022/01/27 05:06:39;;;;;;;51.37;15.40;;;-1.30;99.90;;;;;;5090958;28;21824;-64
2022/01/27 05:09:05;;;;;;;45.90;15.30;;;-1.30;99.90;;;;;;5091072;28;20172;-65
2022/01/27 05:11:35;;;;;;;49.07;13.63;;;-1.30;99.90;;;;;;5091024;28;20241;-65
2022/01/27 05:14:18;;;;;;;45.57;13.93;;;-1.30;99.90;;;;;;5091071;28;20176;-63
2022/01/27 05:16:44;;;;;;;43.33;15.03;;;-1.30;99.90;;;;;;5090967;28;20230;-63
2022/01/27 05:19:09;;;;;;;41.43;14.00;;;-1.30;99.90;;;;;;5089424;28;20172;-68
2022/01/27 05:21:35;;;;;;;44.70;15.53;;;-1.30;99.90;;;;;;5090883;28;20187;-67
2022/01/27 05:24:04;;;;;;;45.90;14.47;;;-1.30;99.90;;;;;;5090542;28;20188;-68
2022/01/27 05:26:31;;;;;;;45.97;14.63;;;-1.30;99.90;;;;;;5091417;28;20240;-61
2022/01/27 05:28:56;;;;;;;44.70;15.07;;;-1.40;99.90;;;;;;5090771;28;20650;-62
2022/01/27 05:31:22;;;;;;;40.87;14.00;;;-1.40;99.90;;;;;;5091245;28;20188;-61
2022/01/27 05:33:48;;;;;;;51.63;15.63;;;-1.40;99.90;;;;;;5081774;28;20203;-65
2022/01/27 05:36:13;;;;;;;46.07;14.93;;;-1.40;99.90;;;;;;5087125;28;20649;-63
2022/01/27 05:38:39;;;;;;;43.43;14.20;;;-1.40;99.90;;;;;;5094960;28;20180;-63
2022/01/27 05:41:05;;;;;;;42.10;13.37;;;-1.40;99.90;;;;;;5094772;28;20559;-63
2022/01/27 05:43:31;;;;;;;43.00;13.87;;;-1.40;99.90;;;;;;5095069;28;20223;-63
2022/01/27 05:45:57;;;;;;;48.50;14.30;;;-1.40;99.90;;;;;;5094860;28;20207;-63
2022/01/27 05:48:23;;;;;;;39.83;13.53;;;-1.40;99.90;;;;;;5094939;28;20184;-63
2022/01/27 05:50:48;;;;;;;40.57;14.33;;;-1.50;99.90;;;;;;5094925;28;20176;-63
2022/01/27 05:53:14;;;;;;;44.60;13.47;;;-1.50;99.90;;;;;;5093568;28;20202;-63
2022/01/27 05:55:40;;;;;;;37.93;13.03;;;-1.40;99.90;;;;;;5094986;28;20310;-63
2022/01/27 05:58:06;;;;;;;46.27;14.53;;;-1.40;99.90;;;;;;5094662;28;20638;-63
2022/01/27 06:00:32;;;;;;;37.27;13.10;;;-1.40;99.90;;;;;;5094789;28;20187;-63
2022/01/27 06:02:58;;;;;;;40.63;13.83;;;-1.40;99.90;;;;;;5094606;28;20176;-63
2022/01/27 06:05:24;;;;;;;40.30;13.97;;;-1.40;99.90;;;;;;5094571;28;20177;-63
2022/01/27 06:07:50;;;;;;;38.20;13.27;;;-1.50;99.90;;;;;;5094443;28;20285;-63
2022/01/27 06:10:15;;;;;;;37.83;13.23;;;-1.50;99.90;;;;;;5094597;28;20180;-63
2022/01/27 06:12:52;;;;;;;37.60;12.03;;;-1.40;99.90;;;;;;5094460;28;20790;-62
2022/01/27 06:15:19;;;;;;;40.13;13.87;;;-1.50;99.90;;;;;;5094470;28;20179;-63
2022/01/27 06:17:45;;;;;;;37.53;12.67;;;-1.40;99.90;;;;;;5094368;28;20210;-63
2022/01/27 06:20:11;;;;;;;36.13;13.83;;;-1.40;99.90;;;;;;5094277;28;20208;-63
2022/01/27 06:22:37;;;;;;;38.10;14.60;;;-1.40;99.90;;;;;;5094310;28;20732;-63
2022/01/27 06:25:03;;;;;;;39.23;13.17;;;-1.50;99.90;;;;;;5094139;28;20686;-63
2022/01/27 06:27:28;;;;;;;36.90;12.93;;;-1.40;99.90;;;;;;5094108;28;20691;-63
2022/01/27 06:29:54;;;;;;;38.50;12.47;;;-1.50;99.90;;;;;;5094199;28;20198;-63
2022/01/27 06:32:20;;;;;;;33.70;12.87;;;-1.50;99.90;;;;;;5093871;28;20237;-63
2022/01/27 06:34:46;;;;;;;33.37;12.60;;;-1.40;99.90;;;;;;5093915;28;20170;-63
2022/01/27 06:37:12;;;;;;;34.80;12.80;;;-1.50;99.90;;;;;;5093912;28;20172;-63
2022/01/27 06:39:38;;;;;;;43.97;12.90;;;-1.50;99.90;;;;;;5092561;28;20666;-63
2022/01/27 06:42:05;;;;;;;38.03;13.53;;;-1.50;99.90;;;;;;5093380;28;20221;-63
2022/01/27 06:44:30;;;;;;;37.10;11.73;;;-1.50;99.90;;;;;;5093998;28;20644;-62
2022/01/27 06:46:56;;;;;;;36.57;12.70;;;-1.50;99.90;;;;;;5093717;28;20208;-62
2022/01/27 06:49:22;;;;;;;40.17;12.57;;;-1.50;99.90;;;;;;5093732;28;20180;-63
2022/01/27 06:51:48;;;;;;;35.20;13.23;;;-1.50;99.90;;;;;;5093663;28;20176;-63
2022/01/27 06:54:16;;;;;;;37.37;11.97;;;-1.50;99.90;;;;;;5093715;28;20190;-63
2022/01/27 06:56:41;;;;;;;34.07;12.00;;;-1.50;99.90;;;;;;5093574;28;20726;-62
2022/01/27 06:59:07;;;;;;;32.73;11.27;;;-1.50;99.90;;;;;;5093485;28;20262;-62
2022/01/27 07:01:33;;;;;;;35.50;11.37;;;-1.50;99.90;;;;;;5093514;28;20635;-63
2022/01/27 07:03:59;;;;;;;34.67;11.37;;;-1.50;99.90;;;;;;5093409;28;20176;-63
2022/01/27 07:06:24;;;;;;;32.57;10.77;;;-1.50;99.90;;;;;;5093326;28;20257;-63
2022/01/27 07:08:50;;;;;;;30.97;10.80;;;-1.40;99.90;;;;;;5093303;28;20182;-63
2022/01/27 07:11:15;;;;;;;31.93;11.10;;;-1.40;99.90;;;;;;5093404;28;20538;-63
2022/01/27 07:13:41;;;;;;;32.20;11.83;;;-1.40;99.90;;;;;;5093355;28;20176;-63
2022/01/27 07:16:10;;;;;;;29.20;11.50;;;-1.40;99.90;;;;;;5093177;28;20638;-62
2022/01/27 07:18:36;;;;;;;29.73;11.43;;;-1.40;99.90;;;;;;5093202;28;20222;-63
2022/01/27 07:21:03;;;;;;;36.50;11.47;;;-1.40;99.90;;;;;;5093024;28;20274;-63
2022/01/27 07:23:29;;;;;;;29.37;11.00;;;-1.40;99.90;;;;;;5093223;28;20521;-63
2022/01/27 07:25:55;;;;;;;29.10;11.50;;;-1.40;99.90;;;;;;5091815;28;20206;-62
2022/01/27 07:28:20;;;;;;;26.43;10.43;;;-1.40;99.90;;;;;;5093170;28;20192;-63
2022/01/27 07:30:46;;;;;;;23.20;9.93;;;-1.40;99.90;;;;;;5093032;28;20172;-63
2022/01/27 07:33:11;;;;;;;28.47;11.03;;;-1.40;99.90;;;;;;5093055;28;20178;-63
2022/01/27 07:35:37;;;;;;;31.70;10.50;;;-1.40;99.90;;;;;;5093146;28;20180;-62
2022/01/27 07:38:04;;;;;;;33.73;10.60;;;-1.40;99.90;;;;;;5092767;28;20685;-63
2022/01/27 07:40:30;;;;;;;29.57;11.10;;;-1.40;99.90;;;;;;5093093;28;20657;-63
2022/01/27 07:42:55;;;;;;;25.63;9.90;;;-1.40;99.90;;;;;;5092918;28;20262;-63
2022/01/27 07:45:21;;;;;;;31.80;10.03;;;-1.30;99.90;;;;;;5092791;28;20597;-63
2022/01/27 07:47:47;;;;;;;26.77;10.63;;;-1.40;99.90;;;;;;5092649;28;20176;-63
2022/01/27 07:50:12;;;;;;;25.73;9.53;;;-1.30;99.90;;;;;;5092837;28;20176;-63
2022/01/27 07:52:38;;;;;;;25.53;10.27;;;-1.30;99.90;;;;;;5092786;28;20622;-62
2022/01/27 07:55:04;;;;;;;25.83;9.13;;;-1.40;99.90;;;;;;5091918;28;20168;-63
2022/01/27 07:57:29;;;;;;;27.07;9.27;;;-1.40;99.90;;;;;;5092457;28;20233;-62
2022/01/27 07:59:55;;;;;;;23.73;8.37;;;-1.40;99.90;;;;;;5091214;28;20192;-63
2022/01/27 08:02:20;;;;;;;25.03;8.83;;;-1.40;99.90;;;;;;5092588;28;20183;-63
2022/01/27 08:04:46;;;;;;;27.13;9.40;;;-1.40;99.90;;;;;;5092458;28;20204;-63
2022/01/27 08:07:13;;;;;;;31.77;8.97;;;-1.40;99.90;;;;;;5092185;28;20235;-62
2022/01/27 08:09:39;;;;;;;23.87;9.50;;;-1.40;99.90;;;;;;5092471;28;20229;-63
2022/01/27 08:12:05;;;;;;;32.40;9.40;;;-1.40;99.90;;;;;;5092297;28;20183;-64
2022/01/27 08:14:31;;;;;;;24.33;9.27;;;-1.40;99.90;;;;;;5092461;28;20176;-62
2022/01/27 08:16:57;;;;;;;25.10;9.50;;;-1.30;99.90;;;;;;5092392;28;20191;-62
2022/01/27 08:19:22;;;;;;;23.77;8.87;;;-1.30;99.90;;;;;;5092428;28;20184;-62
2022/01/27 08:21:48;;;;;;;37.03;13.67;;;-1.30;99.90;;;;;;5091164;28;20215;-62
2022/01/27 08:24:15;;;;;;;50.63;23.20;;;-1.30;99.90;;;;;;5092317;28;20230;-62
2022/01/27 08:26:44;;;;;;;28.43;10.20;;;-1.30;99.90;;;;;;5092208;28;20220;-64
2022/01/27 08:29:15;;;;;;;27.80;10.53;;;-1.30;99.90;;;;;;5091164;28;20259;-63
2022/01/27 08:31:59;;;;;;;23.60;8.80;;;-1.30;99.90;;;;;;5088845;28;20184;-63
2022/01/27 08:34:36;;;;;;;35.50;14.30;;;-1.30;99.90;;;;;;5091881;28;20184;-62
2022/01/27 08:37:05;;;;;;;37.37;15.40;;;-1.20;99.90;;;;;;5091993;28;20732;-62
2022/01/27 08:39:31;;;;;;;36.50;14.40;;;-1.20;99.90;;;;;;5092260;28;20184;-62
2022/01/27 08:41:57;;;;;;;28.63;9.80;;;-1.20;99.90;;;;;;5092032;28;20536;-63
2022/01/27 08:44:23;;;;;;;39.97;12.77;;;-1.20;99.90;;;;;;5092136;28;20195;-62
2022/01/27 08:46:48;;;;;;;27.30;11.40;;;-1.20;99.90;;;;;;5092065;28;20207;-62
2022/01/27 08:49:14;;;;;;;26.57;9.17;;;-1.20;99.90;;;;;;5090851;28;20179;-62
2022/01/27 08:51:40;;;;;;;27.57;10.50;;;-1.20;99.90;;;;;;5092180;28;20176;-63
2022/01/27 08:54:06;;;;;;;29.93;10.27;;;-1.20;99.90;;;;;;5091942;28;20228;-62
2022/01/27 08:56:31;;;;;;;24.40;9.23;;;-1.20;99.90;;;;;;5090728;28;20215;-62
2022/01/27 08:58:57;;;;;;;24.20;9.07;;;-1.20;99.90;;;;;;5091963;28;20177;-62
2022/01/27 09:01:25;;;;;;;23.20;8.60;;;-1.20;99.90;;;;;;5091858;28;20168;-62
2022/01/27 09:03:51;;;;;;;21.77;8.20;;;-1.20;99.90;;;;;;5091931;28;20180;-62
2022/01/27 09:06:20;;;;;;;22.53;8.60;;;-1.20;99.90;;;;;;5094219;28;20204;-63
2022/01/27 09:08:46;;;;;;;25.93;8.70;;;-1.20;99.90;;;;;;5095525;28;20695;-62
2022/01/27 09:11:12;;;;;;;26.60;9.57;;;-1.20;99.90;;;;;;5095683;28;20550;-62
2022/01/27 09:13:39;;;;;;;23.57;8.20;;;-1.10;99.90;;;;;;5095782;28;20180;-62
2022/01/27 09:16:06;;;;;;;25.33;9.70;;;-1.10;99.90;;;;;;5095522;28;20717;-62
2022/01/27 09:18:32;;;;;;;26.77;8.77;;;-1.10;99.90;;;;;;5095693;28;20225;-62
2022/01/27 09:21:01;;;;;;;25.93;9.67;;;-1.10;99.90;;;;;;5095556;28;20203;-62
2022/01/27 09:23:27;;;;;;;26.77;10.43;;;-1.10;99.90;;;;;;5095434;28;20184;-62
2022/01/27 09:25:56;;;;;;;29.10;10.37;;;-1.10;99.90;;;;;;5095374;28;20196;-62
2022/01/27 09:28:22;;;;;;;25.37;9.17;;;-1.00;99.90;;;;;;5095553;28;20930;-62
2022/01/27 09:30:47;;;;;;;25.03;9.53;;;-1.00;99.90;;;;;;5095431;28;20168;-63
2022/01/27 09:33:13;;;;;;;27.97;9.27;;;-1.00;99.90;;;;;;5095248;28;20529;-63
2022/01/27 09:35:39;;;;;;;23.43;9.27;;;-0.90;99.90;;;;;;5095421;28;20255;-62
2022/01/27 09:38:06;;;;;;;27.17;9.27;;;-0.90;99.90;;;;;;5095156;28;20215;-62
2022/01/27 09:40:34;;;;;;;26.70;10.50;;;-0.90;99.90;;;;;;5095291;28;20207;-62
2022/01/27 09:43:00;;;;;;;22.67;9.13;;;-0.90;99.90;;;;;;5093797;28;20199;-62
2022/01/27 09:45:28;;;;;;;22.43;8.57;;;-0.80;99.90;;;;;;5095123;28;20534;-62
2022/01/27 09:47:59;;;;;;;23.13;9.13;;;-0.80;99.90;;;;;;5095126;28;20574;-62
2022/01/27 09:52:54;;;;;;;25.23;8.87;;;-0.70;99.90;;;;;;5094982;28;20510;-62
2022/01/27 09:55:20;;;;;;;25.27;9.60;;;-0.70;99.90;;;;;;5093591;28;20206;-62
2022/01/27 09:57:46;;;;;;;22.00;9.07;;;-0.70;99.90;;;;;;5094719;28;20618;-62
2022/01/27 10:00:12;;;;;;;24.97;9.30;;;-0.60;99.90;;;;;;5094801;28;20262;-62
2022/01/27 10:02:39;;;;;;;24.10;8.87;;;-0.50;99.90;;;;;;5094658;28;20639;-62
2022/01/27 10:05:07;;;;;;;31.30;10.60;;;-0.50;99.90;;;;;;5094705;28;20184;-62
2022/01/27 10:07:39;;;;;;;23.27;9.10;;;-0.50;99.90;;;;;;5094513;28;20297;-62
2022/01/27 10:10:08;;;;;;;25.23;9.70;;;-0.50;99.90;;;;;;5094631;28;20192;-62
2022/01/27 10:12:39;;;;;;;27.67;11.13;;;-0.40;99.90;;;;;;5094675;28;20275;-62
2022/01/27 10:15:17;;;;;;;26.27;10.23;;;-0.40;99.90;;;;;;5094509;28;20198;-62
2022/01/27 10:18:10;;;;;;;25.27;10.00;;;-0.40;99.90;;;;;;5092535;28;20180;-62
2022/01/27 10:20:38;;;;;;;29.53;11.70;;;-0.40;99.90;;;;;;5094410;28;20180;-62
2022/01/27 10:23:11;;;;;;;28.50;11.10;;;-0.40;99.90;;;;;;5094216;28;20678;-62
2022/01/27 10:25:46;;;;;;;29.20;11.53;;;-0.40;99.90;;;;;;5094243;28;20171;-62
2022/01/27 10:31:10;;;;;;;25.83;10.23;;;-0.30;99.90;;;;;;5094294;28;20184;-62
2022/01/27 10:34:01;;;;;;;23.03;10.03;;;-0.20;99.90;;;;;;5094194;28;20646;-63
2022/01/27 10:36:29;;;;;;;28.03;10.47;;;-0.10;99.90;;;;;;5094276;28;20187;-63
2022/01/27 10:39:06;;;;;;;24.53;10.73;;;-0.10;99.90;;;;;;5094080;28;20176;-63
2022/01/27 10:41:34;;;;;;;28.73;11.87;;;0.00;99.90;;;;;;5094223;28;20301;-63
2022/01/27 10:44:14;;;;;;;26.73;10.47;;;0.10;99.90;;;;;;5093880;28;20180;-63
2022/01/27 10:47:09;;;;;;;27.33;10.53;;;0.10;99.90;;;;;;5093878;28;20219;-62
2022/01/27 10:49:40;;;;;;;26.17;10.73;;;0.10;99.90;;;;;;5094022;28;20210;-62
2022/01/27 10:52:28;;;;;;;29.83;10.73;;;0.10;99.90;;;;;;5093657;28;20544;-63
2022/01/27 10:55:00;;;;;;;27.57;10.90;;;0.20;99.90;;;;;;5093797;28;20164;-62
2022/01/27 10:57:26;;;;;;;25.90;10.63;;;0.20;99.90;;;;;;5093670;28;20306;-63
2022/01/27 11:00:15;;;;;;;32.23;11.30;;;0.20;99.90;;;;;;5093618;28;20187;-63
2022/01/27 11:02:52;;;;;;;32.63;11.43;;;0.30;99.90;;;;;;5093778;28;20532;-62
2022/01/27 11:05:23;;;;;;;29.07;10.90;;;0.30;99.90;;;;;;5093543;28;20179;-63
2022/01/27 11:07:49;;;;;;;29.40;11.67;;;0.40;99.90;;;;;;5093307;28;20251;-63
2022/01/27 11:10:16;;;;;;;27.53;11.60;;;0.40;99.90;;;;;;5093604;28;20180;-62
2022/01/27 11:12:43;;;;;;;34.77;11.97;;;0.50;99.90;;;;;;5093371;28;20238;-62
2022/01/27 11:15:13;;;;;;;34.37;12.73;;;0.50;99.90;;;;;;5093400;28;20172;-62
2022/01/27 11:17:41;;;;;;;28.93;10.40;;;0.50;99.90;;;;;;5093416;28;20180;-62
2022/01/27 11:20:29;;;;;;;35.27;11.97;;;0.60;99.90;;;;;;5093221;28;20526;-62
2022/01/27 11:27:53;;;;;;;28.63;11.23;;;0.90;99.90;;;;;;5093207;28;20307;-63
2022/01/27 11:30:24;;;;;;;29.47;13.40;;;0.90;99.90;;;;;;5092387;28;20172;-63
2022/01/27 11:33:01;;;;;;;33.67;12.43;;;0.90;99.90;;;;;;5093116;28;20199;-63
2022/01/27 11:35:27;;;;;;;25.97;10.23;;;0.90;99.90;;;;;;5093244;28;20172;-63
2022/01/27 11:38:01;;;;;;;25.77;10.67;;;0.90;99.90;;;;;;5093046;28;20233;-63
2022/01/27 11:40:40;;;;;;;24.00;11.07;;;0.90;99.90;;;;;;5093026;28;20176;-63
2022/01/27 11:43:15;;;;;;;76.77;30.30;;;1.00;99.90;;;;;;5092803;28;20172;-63
2022/01/27 11:45:49;;;;;;;36.40;15.20;;;1.10;99.90;;;;;;5092857;28;20187;-63
2022/01/27 11:48:24;;;;;;;33.97;13.97;;;1.20;99.90;;;;;;5093007;28;20183;-63
2022/01/27 11:51:12;;;;;;;26.87;10.80;;;1.30;99.90;;;;;;5092922;28;20175;-63
2022/01/27 11:53:50;;;;;;;27.63;11.20;;;1.40;99.90;;;;;;5092841;28;20179;-63
2022/01/27 11:56:28;;;;;;;32.97;13.57;;;1.40;99.90;;;;;;5092687;28;20179;-63
2022/01/27 11:59:01;;;;;;;26.80;11.50;;;1.50;99.90;;;;;;5092637;28;20514;-63
2022/01/27 12:01:29;;;;;;;28.93;11.37;;;1.50;99.90;;;;;;5092609;28;20186;-63
2022/01/27 12:04:09;;;;;;;27.70;11.50;;;1.40;99.90;;;;;;5092651;28;20187;-63
2022/01/27 12:06:35;;;;;;;29.80;11.77;;;1.50;99.90;;;;;;5092294;28;20686;-63
2022/01/27 12:09:18;;;;;;;27.43;10.63;;;1.60;99.90;;;;;;5092590;28;20261;-64
2022/01/27 12:11:53;;;;;;;28.50;11.57;;;1.50;99.90;;;;;;5092534;28;20592;-63
2022/01/27 12:14:41;;;;;;;29.60;11.87;;;1.50;99.90;;;;;;5092639;28;20186;-63
2022/01/27 12:17:09;;;;;;;29.67;11.47;;;1.50;99.90;;;;;;5079311;28;20213;-64
2022/01/27 12:19:56;;;;;;;28.10;10.93;;;1.60;99.90;;;;;;5092610;28;20180;-63
2022/01/27 12:22:28;;;;;;;31.83;11.40;;;1.50;99.90;;;;;;5092454;28;20229;-62
2022/01/27 12:24:59;;;;;;;26.23;11.30;;;1.50;99.90;;;;;;5092520;28;20180;-63
2022/01/27 12:27:27;;;;;;;31.83;12.73;;;1.50;99.90;;;;;;5092279;28;20687;-63
2022/01/27 12:29:57;;;;;;;38.80;16.10;;;1.50;99.90;;;;;;5092312;28;20187;-63
2022/01/27 12:32:25;;;;;;;26.37;11.30;;;1.60;99.90;;;;;;5092427;28;20191;-62
2022/01/27 12:34:57;;;;;;;28.57;12.10;;;1.60;99.90;;;;;;5092321;28;20206;-63
2022/01/27 12:37:34;;;;;;;28.30;11.50;;;1.70;99.90;;;;;;5092195;28;20191;-63
2022/01/27 12:40:16;;;;;;;31.17;12.07;;;1.70;99.90;;;;;;5092250;28;20200;-62
2022/01/27 12:42:57;;;;;;;26.47;10.70;;;1.70;99.90;;;;;;5096297;28;20175;-63
2022/01/27 12:45:28;;;;;;;39.23;17.67;;;1.70;99.90;;;;;;5096343;28;20259;-63
2022/01/27 12:47:55;;;;;;;27.60;12.73;;;1.70;99.90;;;;;;5096262;28;20245;-64
2022/01/27 12:50:23;;;;;;;28.27;10.57;;;1.80;99.90;;;;;;5096280;28;20176;-64
2022/01/27 12:52:57;;;;;;;24.23;11.93;;;1.80;99.90;;;;;;5096134;28;20172;-64
2022/01/27 12:55:33;;;;;;;24.13;10.70;;;1.80;99.90;;;;;;5096197;28;20228;-64
2022/01/27 12:58:03;;;;;;;24.23;10.53;;;1.90;99.90;;;;;;5096126;28;20173;-63
2022/01/27 13:00:35;;;;;;;22.07;10.80;;;1.90;99.90;;;;;;5096089;28;20191;-63
2022/01/27 13:03:01;;;;;;;26.00;10.73;;;1.90;99.90;;;;;;5096280;28;20172;-64
2022/01/27 13:05:41;;;;;;;21.83;10.27;;;2.00;99.90;;;;;;5094850;28;20176;-63
2022/01/27 13:08:15;;;;;;;22.13;10.60;;;2.00;99.90;;;;;;5077658;28;20231;-64
2022/01/27 13:10:56;;;;;;;26.87;10.27;;;2.10;99.90;;;;;;5095851;28;20654;-65
2022/01/27 13:13:26;;;;;;;21.20;10.23;;;2.10;99.90;;;;;;5095790;28;20176;-64
2022/01/27 13:16:04;;;;;;;31.30;10.97;;;2.10;99.90;;;;;;5095829;28;20180;-64
2022/01/27 13:18:39;;;;;;;24.60;10.20;;;2.10;99.90;;;;;;5094580;28;20179;-64
2022/01/27 13:21:07;;;;;;;23.07;9.30;;;2.10;99.90;;;;;;5095524;28;20171;-64
2022/01/27 13:23:36;;;;;;;21.60;10.13;;;2.10;99.90;;;;;;5095617;28;20179;-64
2022/01/27 13:26:09;;;;;;;18.43;9.03;;;2.20;99.90;;;;;;5095370;28;20634;-62
2022/01/27 13:28:39;;;;;;;24.57;10.30;;;2.30;99.90;;;;;;5094454;28;20188;-65